createdAt,value
2022-07-31T00:01:24.538Z,72.22
2022-07-31T00:03:56.246Z,72.09
2022-07-31T00:06:27.882Z,72.13
2022-07-31T00:09:00.718Z,71.95
2022-07-31T00:11:32.334Z,71.97
2022-07-31T00:14:03.937Z,72.05
2022-07-31T00:16:35.632Z,72.10
2022-07-31T00:19:07.289Z,72.35
2022-07-31T00:21:38.951Z,72.20
2022-07-31T00:24:10.947Z,72.19
2022-07-31T00:26:42.995Z,72.28
2022-07-31T00:29:16.006Z,72.36
2022-07-31T00:31:47.790Z,72.22
2022-07-31T00:34:19.442Z,72.31
2022-07-31T00:36:51.400Z,72.31
2022-07-31T00:39:24.328Z,72.29
2022-07-31T00:41:56.354Z,72.42
2022-07-31T00:44:28.169Z,72.31
2022-07-31T00:47:00.745Z,72.31
2022-07-31T00:49:37.712Z,72.30
2022-07-31T00:52:10.156Z,72.35
2022-07-31T00:54:42.243Z,72.33
2022-07-31T00:57:15.337Z,72.63
2022-07-31T00:59:47.209Z,72.51
2022-07-31T01:02:19.022Z,72.30
2022-07-31T01:04:50.713Z,72.11
2022-07-31T01:07:22.362Z,72.32
2022-07-31T01:09:55.528Z,72.40
2022-07-31T01:12:32.694Z,72.42
2022-07-31T01:15:10.195Z,72.40
2022-07-31T01:17:45.530Z,72.49
2022-07-31T01:20:19.198Z,72.55
2022-07-31T01:23:08.686Z,72.51
2022-07-31T01:25:54.579Z,72.60
2022-07-31T01:28:33.204Z,72.66
2022-07-31T01:31:27.104Z,72.53
2022-07-31T01:34:10.247Z,72.47
2022-07-31T01:36:49.892Z,72.57
2022-07-31T01:39:21.898Z,72.49
2022-07-31T01:41:56.475Z,72.46
2022-07-31T01:44:31.209Z,72.71
2022-07-31T01:47:03.934Z,72.69
2022-07-31T01:49:38.510Z,72.85
2022-07-31T01:52:11.124Z,73.01
2022-07-31T01:54:43.232Z,72.77
2022-07-31T01:57:18.587Z,72.69
2022-07-31T01:59:54.593Z,72.70
2022-07-31T02:02:27.926Z,72.47
2022-07-31T02:05:00.371Z,72.34
2022-07-31T02:07:32.529Z,72.37
2022-07-31T02:10:05.506Z,72.39
2022-07-31T02:12:37.884Z,72.38
2022-07-31T02:15:13.417Z,72.44
2022-07-31T02:17:48.097Z,72.41
2022-07-31T02:20:21.707Z,72.56
2022-07-31T02:22:53.475Z,72.63
2022-07-31T02:25:25.864Z,72.83
2022-07-31T02:27:59.573Z,72.71
2022-07-31T02:30:38.281Z,72.75
2022-07-31T02:33:13.977Z,72.95
2022-07-31T02:35:46.406Z,72.91
2022-07-31T02:38:23.455Z,73.20
2022-07-31T02:40:58.663Z,73.00
2022-07-31T02:43:32.149Z,73.07
2022-07-31T02:46:04.495Z,73.16
2022-07-31T02:48:37.334Z,73.06
2022-07-31T02:51:09.701Z,73.06
2022-07-31T02:53:41.811Z,73.04
2022-07-31T02:56:15.808Z,73.15
2022-07-31T02:58:47.467Z,73.11
2022-07-31T03:01:19.137Z,73.08
2022-07-31T03:03:51.379Z,73.09
2022-07-31T03:06:23.073Z,73.16
2022-07-31T03:08:54.748Z,73.35
2022-07-31T03:11:26.919Z,73.43
2022-07-31T03:14:02.030Z,73.49
2022-07-31T03:16:35.270Z,73.36
2022-07-31T03:19:09.893Z,73.26
2022-07-31T03:21:42.230Z,73.36
2022-07-31T03:24:17.684Z,73.39
2022-07-31T03:26:49.489Z,73.32
2022-07-31T03:29:41.643Z,73.37
2022-07-31T03:32:12.781Z,73.62
2022-07-31T03:34:44.586Z,73.74
2022-07-31T03:37:16.309Z,73.74
2022-07-31T03:39:48.132Z,73.69
2022-07-31T03:42:20.178Z,73.84
2022-07-31T03:44:52.324Z,73.79
2022-07-31T03:47:23.985Z,73.70
2022-07-31T03:49:55.975Z,73.68
2022-07-31T03:52:27.770Z,73.84
2022-07-31T03:54:59.472Z,73.71
2022-07-31T03:57:34.093Z,73.53
2022-07-31T04:00:12.397Z,73.57
2022-07-31T04:02:48.924Z,73.83
2022-07-31T04:05:20.674Z,73.69
2022-07-31T04:07:52.588Z,73.51
2022-07-31T04:10:24.768Z,73.51
2022-07-31T04:12:56.617Z,73.32
2022-07-31T04:15:28.777Z,72.99
2022-07-31T04:18:00.526Z,72.92
2022-07-31T04:20:32.170Z,72.72
2022-07-31T04:23:04.486Z,72.61
2022-07-31T04:25:38.961Z,72.48
2022-07-31T04:28:10.626Z,72.38
2022-07-31T04:30:42.786Z,72.20
2022-07-31T04:33:15.189Z,71.98
2022-07-31T04:35:47.136Z,71.47
2022-07-31T04:38:18.710Z,71.05
2022-07-31T04:40:51.778Z,70.72
2022-07-31T04:43:23.551Z,70.32
2022-07-31T04:45:55.317Z,70.08
2022-07-31T04:48:26.979Z,69.05
2022-07-31T04:50:58.718Z,68.96
2022-07-31T04:53:30.303Z,68.43
2022-07-31T04:56:19.833Z,67.70
2022-07-31T04:58:51.436Z,66.78
2022-07-31T05:01:23.130Z,66.68
2022-07-31T05:03:55.110Z,66.28
2022-07-31T05:06:35.722Z,65.22
2022-07-31T05:09:08.940Z,64.84
2022-07-31T05:11:43.519Z,64.54
2022-07-31T05:14:16.909Z,63.53
2022-07-31T05:16:49.233Z,61.45
2022-07-31T05:19:21.189Z,62.27
2022-07-31T05:21:53.742Z,61.68
2022-07-31T05:24:33.332Z,60.28
2022-07-31T05:27:06.277Z,59.34
2022-07-31T05:29:38.004Z,57.50
2022-07-31T05:32:11.932Z,56.62
2022-07-31T05:34:43.993Z,57.19
2022-07-31T05:37:15.656Z,57.05
2022-07-31T05:39:47.330Z,55.59
2022-07-31T05:42:19.096Z,56.15
2022-07-31T05:44:50.730Z,56.66
2022-07-31T05:47:22.747Z,57.27
2022-07-31T05:49:54.465Z,58.05
2022-07-31T05:52:26.657Z,58.71
2022-07-31T05:54:58.287Z,57.70
2022-07-31T05:57:33.218Z,58.13
2022-07-31T06:00:09.165Z,58.98
2022-07-31T06:02:41.184Z,59.22
2022-07-31T06:05:14.753Z,59.02
2022-07-31T06:07:47.258Z,59.97
2022-07-31T06:10:24.113Z,60.75
2022-07-31T06:12:56.282Z,61.05
2022-07-31T06:15:32.020Z,61.40
2022-07-31T06:18:06.439Z,61.53
2022-07-31T06:20:38.121Z,61.97
2022-07-31T06:23:22.658Z,62.37
2022-07-31T06:25:57.435Z,62.67
2022-07-31T06:28:38.842Z,62.76
2022-07-31T06:31:21.147Z,62.49
2022-07-31T06:33:53.037Z,62.69
2022-07-31T06:36:24.795Z,62.88
2022-07-31T06:38:56.682Z,62.84
2022-07-31T06:41:48.171Z,62.73
2022-07-31T06:44:21.073Z,62.35
2022-07-31T06:46:53.019Z,62.36
2022-07-31T06:49:24.753Z,62.70
2022-07-31T06:51:56.551Z,62.96
2022-07-31T06:54:28.435Z,63.12
2022-07-31T06:57:00.187Z,62.67
2022-07-31T06:59:39.427Z,62.56
2022-07-31T07:02:12.136Z,62.81
2022-07-31T07:05:04.949Z,62.94
2022-07-31T07:07:37.938Z,62.07
2022-07-31T07:10:12.732Z,61.17
2022-07-31T07:12:44.519Z,61.87
2022-07-31T07:15:17.990Z,61.79
2022-07-31T07:17:49.666Z,61.83
2022-07-31T07:20:21.529Z,61.63
2022-07-31T07:22:53.173Z,61.29
2022-07-31T07:25:24.861Z,61.32
2022-07-31T07:27:57.111Z,61.05
2022-07-31T07:30:28.977Z,60.41
2022-07-31T07:33:00.640Z,61.30
2022-07-31T07:35:34.181Z,60.67
2022-07-31T07:38:06.239Z,59.94
2022-07-31T07:40:41.142Z,59.68
2022-07-31T07:43:12.762Z,59.34
2022-07-31T07:45:44.782Z,59.50
2022-07-31T07:48:16.353Z,59.29
2022-07-31T07:50:48.015Z,59.39
2022-07-31T07:53:19.801Z,58.75
2022-07-31T07:55:51.636Z,56.96
2022-07-31T07:58:23.208Z,56.80
2022-07-31T08:00:54.957Z,56.53
2022-07-31T08:03:49.637Z,57.36
2022-07-31T08:06:18.659Z,56.59
2022-07-31T08:08:50.348Z,56.07
2022-07-31T08:11:21.967Z,56.99
2022-07-31T08:13:53.656Z,55.66
2022-07-31T08:16:25.555Z,51.52
2022-07-31T08:18:57.332Z,53.06
2022-07-31T08:21:29.065Z,52.86
2022-07-31T08:24:00.709Z,50.57
2022-07-31T08:26:52.657Z,50.95
2022-07-31T08:29:27.490Z,51.14
2022-07-31T08:32:00.642Z,51.09
2022-07-31T08:34:32.663Z,49.61
2022-07-31T08:37:51.276Z,49.26
2022-07-31T08:39:55.918Z,48.26
2022-07-31T08:42:27.612Z,47.83
2022-07-31T08:44:59.391Z,49.58
2022-07-31T08:47:33.419Z,45.97
2022-07-31T08:50:08.692Z,46.24
2022-07-31T08:52:44.002Z,46.06
2022-07-31T08:55:24.643Z,47.38
2022-07-31T08:58:07.813Z,47.00
2022-07-31T09:00:41.999Z,44.69
2022-07-31T09:03:14.286Z,44.13
2022-07-31T09:05:45.919Z,42.73
2022-07-31T09:08:17.501Z,41.19
2022-07-31T09:10:50.394Z,41.83
2022-07-31T09:13:22.719Z,43.30
2022-07-31T09:15:58.366Z,41.67
2022-07-31T09:18:30.362Z,42.18
2022-07-31T09:21:04.325Z,41.54
2022-07-31T09:23:44.840Z,43.41
2022-07-31T09:26:15.387Z,42.30
2022-07-31T09:28:49.366Z,42.86
2022-07-31T09:31:22.202Z,42.34
2022-07-31T09:33:53.929Z,41.16
2022-07-31T09:36:26.586Z,41.14
2022-07-31T09:38:59.730Z,40.64
2022-07-31T09:42:00.954Z,40.14
2022-07-31T09:44:38.898Z,40.45
2022-07-31T09:47:21.124Z,38.28
2022-07-31T09:49:58.433Z,38.15
2022-07-31T09:52:31.648Z,39.29
2022-07-31T09:55:16.072Z,40.44
2022-07-31T09:57:56.296Z,39.34
2022-07-31T10:00:30.013Z,37.87
2022-07-31T10:03:02.790Z,39.14
2022-07-31T10:05:35.323Z,38.58
2022-07-31T10:08:08.647Z,36.24
2022-07-31T10:10:40.737Z,36.73
2022-07-31T10:13:16.476Z,37.47
2022-07-31T10:15:49.916Z,38.43
2022-07-31T10:18:36.413Z,37.18
2022-07-31T10:21:12.499Z,36.40
2022-07-31T10:23:45.682Z,37.36
2022-07-31T10:26:17.719Z,38.02
2022-07-31T10:28:50.652Z,37.45
2022-07-31T10:31:22.938Z,38.55
2022-07-31T10:33:56.020Z,37.25
2022-07-31T10:36:34.180Z,34.87
2022-07-31T10:39:11.483Z,33.52
2022-07-31T10:41:54.641Z,33.82
2022-07-31T10:44:40.882Z,35.39
2022-07-31T10:47:17.295Z,34.64
2022-07-31T10:49:50.717Z,33.93
2022-07-31T10:52:31.743Z,34.47
2022-07-31T10:55:03.851Z,33.90
2022-07-31T10:57:56.639Z,33.42
2022-07-31T11:00:30.622Z,33.10
2022-07-31T11:03:12.748Z,32.88
2022-07-31T11:06:01.516Z,34.08
2022-07-31T11:08:45.969Z,33.90
2022-07-31T11:11:17.919Z,33.98
2022-07-31T11:13:51.579Z,34.10
2022-07-31T11:16:23.599Z,32.07
2022-07-31T11:19:03.966Z,32.86
2022-07-31T11:21:39.521Z,32.45
2022-07-31T11:24:19.904Z,32.57
2022-07-31T11:26:56.165Z,33.37
2022-07-31T11:29:58.577Z,32.13
2022-07-31T11:32:26.478Z,32.84
2022-07-31T11:34:59.067Z,31.88
2022-07-31T11:37:46.403Z,32.18
2022-07-31T11:40:27.315Z,30.96
2022-07-31T11:43:24.715Z,31.49
2022-07-31T11:45:53.075Z,30.04
2022-07-31T11:48:27.888Z,28.86
2022-07-31T11:51:00.900Z,30.30
2022-07-31T11:53:32.775Z,28.48
2022-07-31T11:56:05.473Z,28.74
2022-07-31T11:58:38.810Z,29.42
2022-07-31T12:01:10.648Z,29.67
2022-07-31T12:03:42.700Z,28.30
2022-07-31T12:06:19.226Z,28.88
2022-07-31T12:08:52.113Z,28.10
2022-07-31T12:11:24.440Z,28.31
2022-07-31T12:13:56.142Z,28.15
2022-07-31T12:16:27.997Z,28.01
2022-07-31T12:19:00.206Z,29.36
2022-07-31T12:21:35.591Z,28.74
2022-07-31T12:24:13.263Z,28.64
2022-07-31T12:26:52.497Z,27.27
2022-07-31T12:29:33.139Z,27.38
2022-07-31T12:32:05.623Z,28.41
2022-07-31T12:34:39.494Z,27.76
2022-07-31T12:37:12.532Z,27.39
2022-07-31T12:40:00.692Z,28.17
2022-07-31T12:42:40.659Z,25.27
2022-07-31T12:45:18.333Z,26.00
2022-07-31T12:47:56.259Z,25.96
2022-07-31T12:50:30.200Z,25.33
2022-07-31T12:53:04.768Z,25.20
2022-07-31T12:55:36.574Z,26.76
2022-07-31T12:58:08.169Z,26.42
2022-07-31T13:00:40.339Z,26.46
2022-07-31T13:03:12.155Z,26.81
2022-07-31T13:05:44.131Z,26.46
2022-07-31T13:08:16.659Z,26.09
2022-07-31T13:10:48.350Z,26.40
2022-07-31T13:13:23.372Z,26.70
2022-07-31T13:15:54.905Z,25.38
2022-07-31T13:18:26.668Z,24.86
2022-07-31T13:20:58.513Z,25.48
2022-07-31T13:23:30.531Z,25.86
2022-07-31T13:26:03.130Z,25.70
2022-07-31T13:28:34.824Z,25.65
2022-07-31T13:31:06.511Z,26.55
2022-07-31T13:33:38.292Z,25.71
2022-07-31T13:36:11.042Z,25.53
2022-07-31T13:38:42.693Z,26.46
2022-07-31T13:41:26.010Z,25.60
2022-07-31T13:44:00.093Z,25.79
2022-07-31T13:46:32.800Z,25.94
2022-07-31T13:49:08.622Z,25.77
2022-07-31T13:51:40.999Z,25.79
2022-07-31T13:54:12.958Z,25.95
2022-07-31T13:56:44.601Z,25.26
2022-07-31T13:59:17.727Z,25.80
2022-07-31T14:02:03.222Z,26.37
2022-07-31T14:04:38.449Z,25.92
2022-07-31T14:07:13.083Z,25.12
2022-07-31T14:09:51.302Z,25.25
2022-07-31T14:12:27.186Z,25.18
2022-07-31T14:14:58.842Z,24.52
2022-07-31T14:17:30.892Z,24.21
2022-07-31T14:20:03.049Z,24.62
2022-07-31T14:22:38.113Z,24.97
2022-07-31T14:25:12.563Z,25.36
2022-07-31T14:27:45.951Z,25.86
2022-07-31T14:30:19.839Z,25.82
2022-07-31T14:32:52.155Z,25.91
2022-07-31T14:35:23.865Z,24.95
2022-07-31T14:37:55.559Z,25.23
2022-07-31T14:40:30.692Z,25.29
2022-07-31T14:43:02.397Z,25.34
2022-07-31T14:45:38.722Z,25.18
2022-07-31T14:48:23.760Z,25.35
2022-07-31T14:50:55.570Z,25.03
2022-07-31T14:53:27.218Z,25.19
2022-07-31T14:56:04.056Z,25.59
2022-07-31T14:58:57.866Z,24.92
2022-07-31T15:01:30.529Z,24.41
2022-07-31T15:04:02.732Z,24.51
2022-07-31T15:06:39.439Z,24.47
2022-07-31T15:09:26.423Z,24.57
2022-07-31T15:11:59.693Z,24.56
2022-07-31T15:14:33.323Z,24.46
2022-07-31T15:17:05.248Z,24.30
2022-07-31T15:19:37.410Z,24.61
2022-07-31T15:22:17.175Z,24.41
2022-07-31T15:24:50.457Z,24.84
2022-07-31T15:27:22.781Z,24.80
2022-07-31T15:30:05.553Z,24.82
2022-07-31T15:32:40.700Z,23.88
2022-07-31T15:35:14.918Z,24.44
2022-07-31T15:37:47.202Z,24.64
2022-07-31T15:40:21.387Z,24.19
2022-07-31T15:42:53.129Z,24.36
2022-07-31T15:45:24.792Z,24.56
2022-07-31T15:47:56.622Z,24.54
2022-07-31T15:50:28.386Z,24.43
2022-07-31T15:53:00.133Z,24.87
2022-07-31T15:55:32.989Z,24.67
2022-07-31T15:58:04.788Z,24.64
2022-07-31T16:00:37.099Z,24.70
2022-07-31T16:03:08.739Z,24.52
2022-07-31T16:05:55.969Z,24.94
2022-07-31T16:08:35.206Z,24.56
2022-07-31T16:11:07.530Z,24.91
2022-07-31T16:13:39.269Z,24.89
2022-07-31T16:16:11.634Z,25.23
2022-07-31T16:18:43.422Z,25.14
2022-07-31T16:21:15.261Z,25.36
2022-07-31T16:23:47.135Z,25.19
2022-07-31T16:26:18.765Z,25.42
2022-07-31T16:28:54.029Z,25.32
2022-07-31T16:31:29.991Z,25.83
2022-07-31T16:34:02.412Z,25.83
2022-07-31T16:36:34.069Z,25.39
2022-07-31T16:39:19.867Z,25.50
2022-07-31T16:41:55.061Z,25.73
2022-07-31T16:44:26.974Z,25.35
2022-07-31T16:46:58.699Z,25.66
2022-07-31T16:49:36.780Z,25.59
2022-07-31T16:52:13.462Z,25.65
2022-07-31T16:54:47.798Z,25.85
2022-07-31T16:57:21.455Z,25.97
2022-07-31T16:59:57.251Z,26.08
2022-07-31T17:02:29.888Z,25.95
2022-07-31T17:05:01.580Z,25.94
2022-07-31T17:07:33.229Z,26.13
2022-07-31T17:10:05.233Z,26.26
2022-07-31T17:12:36.871Z,26.43
2022-07-31T17:15:11.860Z,26.58
2022-07-31T17:17:43.764Z,26.53
2022-07-31T17:20:18.618Z,26.55
2022-07-31T17:22:51.249Z,26.65
2022-07-31T17:25:26.402Z,26.71
2022-07-31T17:27:58.013Z,26.63
2022-07-31T17:30:30.208Z,26.64
2022-07-31T17:33:01.796Z,26.70
2022-07-31T17:35:34.399Z,27.07
2022-07-31T17:38:06.804Z,27.20
2022-07-31T17:40:43.784Z,27.31
2022-07-31T17:43:15.719Z,27.35
2022-07-31T17:45:59.359Z,27.24
2022-07-31T17:48:38.132Z,27.34
2022-07-31T17:51:10.759Z,27.37
2022-07-31T17:53:55.028Z,27.44
2022-07-31T17:56:32.178Z,27.61
2022-07-31T17:59:05.873Z,27.79
2022-07-31T18:01:37.575Z,27.71
2022-07-31T18:04:09.568Z,27.92
2022-07-31T18:06:41.416Z,28.02
2022-07-31T18:09:23.460Z,28.11
2022-07-31T18:11:56.225Z,28.49
2022-07-31T18:14:28.295Z,28.62
2022-07-31T18:17:00.709Z,29.01
2022-07-31T18:19:32.525Z,29.18
2022-07-31T18:22:04.516Z,29.16
2022-07-31T18:24:36.557Z,29.50
2022-07-31T18:27:08.699Z,29.85
2022-07-31T18:29:40.578Z,29.88
2022-07-31T18:32:12.721Z,30.14
2022-07-31T18:34:45.399Z,30.39
2022-07-31T18:37:17.495Z,30.48
2022-07-31T18:39:49.497Z,30.69
2022-07-31T18:42:21.645Z,30.89
2022-07-31T18:44:53.712Z,30.99
2022-07-31T18:47:26.641Z,31.12
2022-07-31T18:50:58.848Z,31.25
2022-07-31T18:52:53.260Z,31.62
2022-07-31T18:55:26.472Z,31.81
2022-07-31T18:57:59.521Z,31.88
2022-07-31T19:00:31.618Z,32.26
2022-07-31T19:03:04.126Z,32.05
2022-07-31T19:05:36.237Z,32.25
2022-07-31T19:08:08.402Z,32.45
2022-07-31T19:10:40.218Z,32.55
2022-07-31T19:13:18.015Z,32.84
2022-07-31T19:15:53.148Z,32.81
2022-07-31T19:18:28.215Z,33.05
2022-07-31T19:21:22.805Z,33.20
2022-07-31T19:23:52.616Z,33.35
2022-07-31T19:26:27.387Z,33.42
2022-07-31T19:28:59.307Z,33.74
2022-07-31T19:31:31.251Z,33.92
2022-07-31T19:34:03.159Z,34.30
2022-07-31T19:36:35.103Z,34.28
2022-07-31T19:39:07.234Z,34.45
2022-07-31T19:41:39.199Z,34.88
2022-07-31T19:44:13.435Z,34.97
2022-07-31T19:46:45.406Z,35.00
2022-07-31T19:49:17.453Z,35.11
2022-07-31T19:51:49.447Z,35.38
2022-07-31T19:54:21.295Z,35.54
2022-07-31T19:56:53.102Z,35.61
2022-07-31T19:59:25.044Z,35.83
2022-07-31T20:01:56.862Z,36.10
2022-07-31T20:04:28.739Z,36.30
2022-07-31T20:07:00.509Z,36.36
2022-07-31T20:09:32.563Z,36.43
2022-07-31T20:12:04.519Z,36.77
2022-07-31T20:14:36.478Z,37.04
2022-07-31T20:17:08.361Z,37.17
2022-07-31T20:20:11.845Z,37.33
2022-07-31T20:22:31.965Z,37.44
2022-07-31T20:25:12.057Z,37.66
2022-07-31T20:27:52.237Z,37.98
2022-07-31T20:30:25.834Z,38.11
2022-07-31T20:32:57.536Z,38.25
2022-07-31T20:35:48.079Z,38.16
2022-07-31T20:38:22.421Z,38.26
2022-07-31T20:40:56.124Z,38.58
2022-07-31T20:43:31.185Z,38.66
2022-07-31T20:46:02.934Z,38.67
2022-07-31T20:48:35.048Z,38.74
2022-07-31T20:51:09.268Z,38.87
2022-07-31T20:53:40.837Z,38.73
2022-07-31T20:56:12.406Z,39.13
2022-07-31T20:58:47.225Z,39.67
2022-07-31T21:01:23.659Z,39.56
2022-07-31T21:03:56.072Z,39.99
2022-07-31T21:06:27.749Z,40.22
2022-07-31T21:08:59.513Z,40.81
2022-07-31T21:11:36.779Z,41.09
2022-07-31T21:14:08.356Z,41.40
2022-07-31T21:16:40.297Z,41.46
2022-07-31T21:19:12.144Z,41.52
2022-07-31T21:21:43.917Z,41.71
2022-07-31T21:24:16.051Z,40.95
2022-07-31T21:26:51.957Z,40.50
2022-07-31T21:29:27.469Z,40.66
2022-07-31T21:32:02.564Z,40.23
2022-07-31T21:34:37.154Z,40.22
2022-07-31T21:37:09.486Z,40.18
2022-07-31T21:39:48.552Z,40.14
2022-07-31T21:42:20.645Z,40.04
2022-07-31T21:44:54.613Z,40.16
2022-07-31T21:47:28.301Z,40.60
2022-07-31T21:50:28.943Z,41.32
2022-07-31T21:53:01.372Z,41.77
2022-07-31T21:55:32.989Z,41.79
2022-07-31T21:58:04.833Z,42.15
2022-07-31T22:00:38.975Z,42.36
2022-07-31T22:03:10.821Z,42.29
2022-07-31T22:06:00.156Z,42.34
2022-07-31T22:08:31.956Z,42.50
2022-07-31T22:11:03.550Z,42.20
2022-07-31T22:13:35.240Z,42.06
2022-07-31T22:16:07.844Z,42.01
2022-07-31T22:18:40.409Z,41.86
2022-07-31T22:21:14.367Z,41.69
2022-07-31T22:23:46.682Z,41.74
2022-07-31T22:26:21.314Z,41.79
2022-07-31T22:28:54.879Z,41.75
2022-07-31T22:31:27.258Z,41.85
2022-07-31T22:33:59.224Z,42.08
2022-07-31T22:36:31.467Z,42.40
2022-07-31T22:39:03.507Z,42.68
2022-07-31T22:41:35.449Z,42.88
2022-07-31T22:44:12.586Z,43.12
2022-07-31T22:46:48.576Z,43.43
2022-07-31T22:49:21.869Z,43.76
2022-07-31T22:51:53.688Z,43.95
2022-07-31T22:54:25.455Z,44.07
2022-07-31T22:56:57.082Z,44.32
2022-07-31T22:59:28.999Z,44.50
2022-07-31T23:02:03.738Z,44.97
2022-07-31T23:04:36.576Z,45.03
2022-07-31T23:07:08.496Z,44.97
2022-07-31T23:09:40.263Z,45.58
2022-07-31T23:12:12.317Z,45.61
2022-07-31T23:14:44.639Z,45.76
2022-07-31T23:17:22.513Z,45.81
2022-07-31T23:19:55.546Z,45.98
2022-07-31T23:22:33.879Z,46.20
2022-07-31T23:25:07.395Z,46.50
2022-07-31T23:27:38.999Z,46.95
2022-07-31T23:30:13.513Z,46.85
2022-07-31T23:32:45.204Z,47.22
2022-07-31T23:35:17.026Z,47.35
2022-07-31T23:37:48.725Z,47.36
2022-07-31T23:40:26.225Z,47.41
2022-07-31T23:42:57.893Z,47.53
2022-07-31T23:45:29.591Z,47.90
2022-07-31T23:48:02.904Z,48.00
2022-07-31T23:50:35.297Z,48.27
2022-07-31T23:53:06.940Z,48.66
2022-07-31T23:55:40.382Z,48.66
2022-07-31T23:58:14.441Z,48.90
